Bookmark and Share
Track history (hours):
 

Magne Viking

Last reported at 2014-Apr-16 17:09 UTC. Time now 2014-Apr-17 12:34 UTC.
Position N 59°21' E 001°32'.

Length 85 m; draft 6.8 m.

Type: Tug. MMSI: 219375000.

NotesDate/timePositionNaut miles runAvg speedWind from/ knotsBaromVisibWave heightAir tempDewpointWater temp
2014-Apr-16 17:09N 59°21' E 001°32'175 4.1
2014-Apr-14 22:34N 57°09' W 002°05'0 0.0
2014-Apr-14 21:32N 57°09' W 002°05'0 0.0
2014-Apr-14 20:33N 57°09' W 002°05'0 0.0
2014-Apr-14 19:33N 57°09' W 002°05'0 0.0
2014-Apr-14 17:32N 57°09' W 002°05'0 0.2
2014-Apr-14 16:32N 57°09' W 002°05'0 0.0
2014-Apr-14 15:33N 57°09' W 002°05'0 0.0
2014-Apr-14 14:34N 57°09' W 002°05'0 0.1
2014-Apr-14 13:34N 57°08' W 002°04'1 0.0
2014-Apr-12 11:14N 57°09' W 002°03'1 1.4
2014-Apr-12 10:28N 57°09' W 002°05'0 0.0
2014-Apr-12 09:31N 57°09' W 002°05'0 0.0
2014-Apr-12 08:32N 57°09' W 002°05'0 0.0
2014-Apr-12 07:33N 57°09' W 002°05'0 0.0
2014-Apr-12 06:33N 57°09' W 002°05'0 0.0
2014-Apr-12 05:31N 57°09' W 002°05'0 0.0
2014-Apr-12 04:32N 57°09' W 002°05'0 0.0
2014-Apr-12 03:32N 57°09' W 002°05'0 0.0
2014-Apr-12 02:33N 57°09' W 002°05'0 0.0
2014-Apr-12 01:31N 57°09' W 002°05'0 0.0
2014-Apr-12 00:31N 57°09' W 002°05'0 0.0
2014-Apr-11 23:32N 57°09' W 002°05'0 0.0
2014-Apr-11 22:33N 57°09' W 002°05'2 1.6
2014-Apr-11 21:26N 57°09' W 002°02'9 3.2
2014-Apr-11 18:32N 57°17' W 001°52'1010.1
2014-Apr-11 17:33N 57°26' W 001°43'9 8.8
2014-Apr-11 16:33N 57°34' W 001°37'9 8.9
2014-Apr-11 15:33N 57°43' W 001°38'9 9.1
2014-Apr-11 14:33N 57°52' W 001°38'  
2014-Apr-07 20:05N 57°56' W 001°38'612.4
2014-Apr-07 19:34N 57°49' W 001°38'2311.5
2014-Apr-07 17:34N 57°26' W 001°39'1111.3
2014-Apr-07 16:33N 57°17' W 001°51'1110.8
2014-Apr-07 15:34N 57°09' W 002°04'1 0.6
2014-Apr-07 14:32N 57°09' W 002°05'0 0.0
2014-Apr-07 13:33N 57°09' W 002°05'0 0.0
2014-Apr-07 12:33N 57°09' W 002°05'0 0.0
2014-Apr-07 11:31N 57°09' W 002°05'0 0.0
2014-Apr-07 10:32N 57°09' W 002°05'0 0.0
2014-Apr-07 09:33N 57°09' W 002°05'0 0.0
2014-Apr-07 08:34N 57°09' W 002°05'3 2.2
2014-Apr-07 07:17N 57°10' W 002°01'1 1.0
2014-Apr-07 06:25N 57°11' W 002°01'0 0.0
2014-Apr-07 05:31N 57°11' W 002°01'0 0.0
2014-Apr-07 03:33N 57°11' W 002°01'0 0.0
2014-Apr-07 01:04N 57°11' W 002°01'0 0.0
2014-Apr-06 18:27N 57°11' W 002°01'  

Dump ship's entire track history

sailing weather and tide predictions

Magne Viking — OURK2 — position and weather